createdAt,value
2023-05-04T00:01:18.985Z,11.66
2023-05-04T00:03:47.850Z,11.59
2023-05-04T00:06:19.351Z,11.53
2023-05-04T00:08:48.156Z,11.55
2023-05-04T00:11:16.380Z,11.55
2023-05-04T00:13:45.156Z,11.60
2023-05-04T00:16:13.481Z,11.59
2023-05-04T00:18:42.199Z,11.59
2023-05-04T00:21:10.734Z,11.53
2023-05-04T00:23:39.221Z,11.43
2023-05-04T00:26:12.164Z,11.37
2023-05-04T00:28:40.201Z,11.22
2023-05-04T00:31:12.624Z,11.12
2023-05-04T00:33:41.603Z,11.06
2023-05-04T00:36:10.059Z,11.03
2023-05-04T00:38:52.540Z,11.01
2023-05-04T00:41:25.339Z,10.98
2023-05-04T00:43:53.328Z,10.89
2023-05-04T00:46:21.797Z,10.84
2023-05-04T00:48:51.839Z,10.82
2023-05-04T00:51:24.356Z,10.87
2023-05-04T00:53:54.744Z,10.85
2023-05-04T00:56:24.830Z,10.83
2023-05-04T00:58:58.097Z,10.82
2023-05-04T01:01:26.831Z,10.82
2023-05-04T01:03:55.793Z,10.81
2023-05-04T01:06:29.625Z,10.76
2023-05-04T01:09:11.174Z,10.75
2023-05-04T01:11:49.362Z,10.72
2023-05-04T01:14:19.250Z,10.66
2023-05-04T01:16:47.811Z,10.61
2023-05-04T01:19:16.922Z,10.62
2023-05-04T01:21:45.032Z,10.51
2023-05-04T01:24:13.052Z,10.58
2023-05-04T01:26:44.342Z,10.61
2023-05-04T01:29:20.279Z,10.56
2023-05-04T01:31:49.296Z,10.44
2023-05-04T01:34:20.040Z,10.29
2023-05-04T01:36:48.626Z,10.20
2023-05-04T01:39:16.892Z,10.13
2023-05-04T01:41:47.912Z,10.10
2023-05-04T01:44:16.987Z,10.07
2023-05-04T01:46:45.298Z,9.99
2023-05-04T01:49:13.377Z,9.94
2023-05-04T01:51:41.484Z,9.91
2023-05-04T01:54:09.627Z,9.87
2023-05-04T01:56:58.088Z,9.86
2023-05-04T01:59:25.997Z,9.83
2023-05-04T02:01:54.151Z,9.82
2023-05-04T02:04:22.330Z,9.83
2023-05-04T02:06:50.820Z,9.86
2023-05-04T02:09:18.850Z,9.91
2023-05-04T02:11:47.176Z,9.94
2023-05-04T02:14:15.454Z,9.97
2023-05-04T02:16:43.666Z,10.02
2023-05-04T02:19:11.710Z,10.05
2023-05-04T02:21:42.435Z,10.09
2023-05-04T02:24:10.827Z,10.19
2023-05-04T02:26:39.088Z,10.36
2023-05-04T02:29:07.616Z,10.47
2023-05-04T02:31:36.311Z,10.56
2023-05-04T02:34:04.689Z,10.71
2023-05-04T02:36:32.984Z,10.88
2023-05-04T02:39:04.084Z,11.68
2023-05-04T02:41:32.101Z,12.83
2023-05-04T02:44:00.167Z,13.54
2023-05-04T02:46:28.121Z,14.22
2023-05-04T02:48:59.229Z,15.26
2023-05-04T02:51:27.390Z,16.61
2023-05-04T02:53:55.720Z,17.40
2023-05-04T02:56:24.643Z,18.55
2023-05-04T02:58:52.902Z,20.17
2023-05-04T03:01:20.938Z,21.74
2023-05-04T03:03:49.342Z,23.11
2023-05-04T03:06:17.233Z,23.67
2023-05-04T03:08:45.603Z,24.12
2023-05-04T03:11:13.999Z,24.84
2023-05-04T03:13:42.138Z,25.31
2023-05-04T03:16:10.633Z,25.41
2023-05-04T03:18:40.437Z,26.12
2023-05-04T03:21:08.773Z,26.70
2023-05-04T03:23:37.150Z,27.67
2023-05-04T03:26:06.740Z,28.10
2023-05-04T03:28:40.823Z,28.72
2023-05-04T03:31:09.177Z,28.85
2023-05-04T03:33:37.468Z,29.40
2023-05-04T03:36:05.830Z,30.51
2023-05-04T03:38:34.363Z,32.16
2023-05-04T03:41:02.424Z,32.63
2023-05-04T03:43:31.118Z,33.16
2023-05-04T03:45:59.797Z,32.88
2023-05-04T03:48:28.135Z,33.26
2023-05-04T03:50:56.570Z,33.73
2023-05-04T03:53:24.727Z,34.06
2023-05-04T03:55:53.097Z,34.68
2023-05-04T03:58:21.550Z,34.50
2023-05-04T04:00:49.562Z,34.88
2023-05-04T04:03:18.228Z,34.46
2023-05-04T04:05:46.496Z,34.06
2023-05-04T04:08:14.744Z,34.78
2023-05-04T04:10:43.258Z,35.53
2023-05-04T04:13:11.657Z,35.35
2023-05-04T04:15:42.045Z,35.34
2023-05-04T04:18:11.691Z,33.78
2023-05-04T04:20:39.613Z,34.66
2023-05-04T04:23:07.667Z,34.03
2023-05-04T04:25:35.774Z,34.60
2023-05-04T04:28:05.103Z,33.98
2023-05-04T04:30:33.609Z,33.47
2023-05-04T04:33:02.448Z,33.52
2023-05-04T04:35:33.525Z,33.68
2023-05-04T04:38:03.797Z,33.99
2023-05-04T04:40:32.406Z,34.95
2023-05-04T04:43:00.306Z,34.77
2023-05-04T04:45:28.611Z,34.44
2023-05-04T04:47:56.663Z,33.60
2023-05-04T04:50:25.360Z,33.59
2023-05-04T04:52:53.505Z,33.88
2023-05-04T04:55:21.483Z,34.92
2023-05-04T04:57:49.421Z,35.33
2023-05-04T05:00:18.249Z,34.24
2023-05-04T05:05:31.832Z,34.77
2023-05-04T05:08:00.967Z,34.89
2023-05-04T05:10:29.330Z,35.15
2023-05-04T05:12:57.550Z,35.06
2023-05-04T05:15:26.180Z,35.54
2023-05-04T05:17:54.600Z,35.74
2023-05-04T05:20:24.041Z,36.60
2023-05-04T05:22:52.651Z,36.64
2023-05-04T05:25:21.410Z,36.73
2023-05-04T05:27:50.698Z,36.44
2023-05-04T05:30:19.390Z,35.93
2023-05-04T05:32:49.315Z,36.23
2023-05-04T05:35:17.717Z,36.92
2023-05-04T05:37:46.252Z,37.73
2023-05-04T05:40:14.744Z,37.70
2023-05-04T05:42:43.353Z,38.03
2023-05-04T05:45:11.968Z,37.92
2023-05-04T05:47:40.145Z,37.01
2023-05-04T05:50:08.933Z,37.05
2023-05-04T05:52:37.647Z,35.28
2023-05-04T05:55:06.308Z,34.15
2023-05-04T05:57:34.525Z,33.83
2023-05-04T06:00:03.882Z,33.68
2023-05-04T06:02:33.806Z,34.02
2023-05-04T06:05:03.291Z,34.56
2023-05-04T06:07:32.409Z,34.73
2023-05-04T06:10:00.700Z,34.89
2023-05-04T06:12:28.810Z,34.79
2023-05-04T06:14:56.980Z,34.10
2023-05-04T06:17:25.339Z,33.18
2023-05-04T06:19:53.583Z,33.50
2023-05-04T06:22:22.154Z,34.73
2023-05-04T06:24:50.391Z,35.54
2023-05-04T06:27:19.104Z,35.77
2023-05-04T06:29:47.637Z,35.30
2023-05-04T06:32:15.795Z,34.96
2023-05-04T06:34:44.796Z,35.13
2023-05-04T06:37:15.561Z,34.79
2023-05-04T06:39:44.244Z,34.27
2023-05-04T06:42:12.702Z,35.72
2023-05-04T06:44:40.704Z,35.71
2023-05-04T06:47:08.757Z,34.78
2023-05-04T06:49:36.886Z,34.46
2023-05-04T06:52:05.460Z,32.58
2023-05-04T06:54:33.753Z,29.78
2023-05-04T06:57:05.482Z,27.49
2023-05-04T06:59:34.507Z,26.24
2023-05-04T07:02:02.572Z,25.24
2023-05-04T07:04:30.724Z,24.45
2023-05-04T07:06:58.839Z,23.73
2023-05-04T07:09:27.281Z,23.18
2023-05-04T07:11:55.627Z,22.77
2023-05-04T07:14:24.241Z,22.80
2023-05-04T07:16:53.163Z,22.95
2023-05-04T07:19:21.796Z,22.62
2023-05-04T07:21:50.109Z,22.44
2023-05-04T07:24:18.418Z,22.41
2023-05-04T07:26:47.034Z,22.50
2023-05-04T07:29:17.174Z,22.48
2023-05-04T07:31:45.485Z,22.54
2023-05-04T07:34:14.034Z,22.48
2023-05-04T07:36:45.480Z,22.42
2023-05-04T07:39:15.938Z,22.54
2023-05-04T07:41:44.468Z,22.53
2023-05-04T07:44:13.178Z,22.96
2023-05-04T07:46:44.135Z,23.17
2023-05-04T07:49:14.519Z,23.42
2023-05-04T07:51:42.512Z,23.65
2023-05-04T07:54:11.121Z,23.65
2023-05-04T07:56:39.260Z,23.37
2023-05-04T07:59:07.356Z,23.23
2023-05-04T08:01:36.508Z,23.23
2023-05-04T08:04:04.910Z,23.34
2023-05-04T08:06:35.774Z,23.24
2023-05-04T08:09:03.930Z,22.97
2023-05-04T08:11:34.402Z,23.05
2023-05-04T08:14:03.078Z,23.20
2023-05-04T08:16:32.803Z,23.20
2023-05-04T08:19:01.709Z,23.23
2023-05-04T08:21:29.968Z,23.36
2023-05-04T08:23:59.116Z,23.48
2023-05-04T08:26:27.691Z,23.44
2023-05-04T08:29:07.642Z,23.45
2023-05-04T08:31:36.106Z,23.82
2023-05-04T08:34:05.254Z,24.17
2023-05-04T08:36:33.985Z,24.24
2023-05-04T08:39:02.208Z,24.10
2023-05-04T08:41:31.228Z,24.19
2023-05-04T08:43:59.588Z,24.19
2023-05-04T08:46:31.070Z,24.30
2023-05-04T08:48:59.280Z,24.47
2023-05-04T08:51:27.685Z,24.44
2023-05-04T08:53:56.252Z,24.13
2023-05-04T08:56:24.664Z,23.82
2023-05-04T08:58:53.238Z,23.93
2023-05-04T09:01:22.722Z,24.14
2023-05-04T09:03:52.740Z,24.28
2023-05-04T09:06:21.248Z,24.27
2023-05-04T09:08:49.363Z,24.42
2023-05-04T09:11:17.542Z,24.32
2023-05-04T09:13:45.706Z,24.56
2023-05-04T09:16:15.643Z,24.75
2023-05-04T09:18:44.968Z,24.94
2023-05-04T09:21:13.143Z,25.07
2023-05-04T09:23:49.716Z,25.32
2023-05-04T09:26:28.660Z,25.62
2023-05-04T09:28:57.880Z,26.07
2023-05-04T09:31:26.969Z,26.32
2023-05-04T09:34:01.153Z,26.42
2023-05-04T09:36:29.758Z,26.56
2023-05-04T09:38:57.966Z,26.55
2023-05-04T09:41:34.253Z,26.82
2023-05-04T09:44:03.800Z,26.57
2023-05-04T09:46:32.259Z,26.54
2023-05-04T09:49:01.177Z,25.99
2023-05-04T09:51:29.353Z,25.28
2023-05-04T09:53:59.065Z,25.02
2023-05-04T09:56:30.285Z,24.70
2023-05-04T09:59:02.340Z,24.15
2023-05-04T10:01:35.291Z,23.61
2023-05-04T10:04:04.903Z,23.54
2023-05-04T10:06:38.276Z,23.37
2023-05-04T10:09:10.299Z,23.30
2023-05-04T10:11:38.440Z,23.48
2023-05-04T10:14:07.683Z,23.82
2023-05-04T10:16:52.584Z,24.06
2023-05-04T10:19:30.092Z,24.28
2023-05-04T10:22:25.884Z,24.75
2023-05-04T10:25:22.911Z,24.74
2023-05-04T10:28:17.084Z,24.51
2023-05-04T10:30:46.085Z,24.32
2023-05-04T10:33:14.450Z,24.25
2023-05-04T10:35:56.393Z,24.36
2023-05-04T10:38:45.603Z,24.13
2023-05-04T10:41:22.400Z,24.15
2023-05-04T10:43:53.746Z,24.37
2023-05-04T10:46:23.194Z,24.75
2023-05-04T10:48:52.254Z,24.86
2023-05-04T10:51:21.604Z,24.83
2023-05-04T10:53:50.048Z,24.98
2023-05-04T10:56:25.765Z,25.27
2023-05-04T10:58:54.842Z,25.39
2023-05-04T11:01:23.576Z,25.37
2023-05-04T11:03:52.859Z,25.30
2023-05-04T11:06:25.297Z,25.11
2023-05-04T11:09:02.977Z,25.10
2023-05-04T11:11:37.013Z,25.01
2023-05-04T11:14:05.188Z,24.83
2023-05-04T11:16:33.712Z,24.32
2023-05-04T11:19:09.959Z,24.21
2023-05-04T11:21:38.462Z,24.22
2023-05-04T11:24:06.913Z,24.29
2023-05-04T11:26:48.286Z,24.25
2023-05-04T11:29:17.536Z,24.26
2023-05-04T11:31:55.222Z,24.39
2023-05-04T11:34:24.009Z,24.35
2023-05-04T11:36:52.254Z,24.48
2023-05-04T11:39:23.722Z,24.59
2023-05-04T11:41:53.394Z,24.78
2023-05-04T11:44:22.931Z,24.76
2023-05-04T11:46:52.159Z,24.60
2023-05-04T11:49:21.094Z,24.50
2023-05-04T11:51:49.780Z,24.41
2023-05-04T11:54:22.596Z,24.24
2023-05-04T11:56:50.800Z,24.03
2023-05-04T11:59:19.145Z,24.00
2023-05-04T12:01:48.869Z,23.83
2023-05-04T12:04:17.429Z,23.89
2023-05-04T12:06:46.912Z,23.94
2023-05-04T12:09:15.295Z,24.05
2023-05-04T12:11:54.941Z,24.10
2023-05-04T12:14:24.801Z,24.19
2023-05-04T12:16:58.069Z,24.23
2023-05-04T12:19:26.364Z,24.12
2023-05-04T12:21:55.425Z,23.90
2023-05-04T12:24:24.482Z,24.00
2023-05-04T12:26:52.716Z,24.07
2023-05-04T12:29:21.268Z,24.13
2023-05-04T12:31:49.635Z,24.25
2023-05-04T12:34:18.197Z,24.47
2023-05-04T12:36:46.742Z,24.53
2023-05-04T12:39:14.807Z,24.48
2023-05-04T12:41:42.904Z,24.40
2023-05-04T12:44:12.125Z,24.34
2023-05-04T12:46:40.459Z,24.41
2023-05-04T12:49:08.520Z,24.57
2023-05-04T12:51:36.706Z,24.77
2023-05-04T12:54:04.814Z,24.88
2023-05-04T12:56:34.139Z,24.97
2023-05-04T12:59:02.597Z,25.00
2023-05-04T13:01:31.011Z,25.06
2023-05-04T13:03:59.272Z,25.03
2023-05-04T13:06:27.830Z,25.04
2023-05-04T13:08:55.865Z,25.00
2023-05-04T13:11:25.466Z,24.95
2023-05-04T13:13:53.792Z,25.03
2023-05-04T13:16:22.107Z,25.06
2023-05-04T13:18:50.984Z,25.09
2023-05-04T13:21:23.287Z,24.93
2023-05-04T13:23:53.655Z,24.85
2023-05-04T13:26:21.742Z,24.66
2023-05-04T13:28:51.751Z,24.74
2023-05-04T13:31:19.902Z,24.77
2023-05-04T13:33:53.464Z,24.70
2023-05-04T13:36:30.720Z,24.65
2023-05-04T13:38:59.296Z,24.57
2023-05-04T13:41:27.972Z,24.49
2023-05-04T13:43:56.627Z,24.40
2023-05-04T13:46:25.251Z,24.25
2023-05-04T13:48:57.196Z,24.06
2023-05-04T13:51:26.123Z,23.90
2023-05-04T13:53:55.008Z,23.88
2023-05-04T13:56:23.995Z,23.81
2023-05-04T13:58:53.223Z,23.89
2023-05-04T14:01:21.312Z,23.92
2023-05-04T14:03:49.552Z,24.00
2023-05-04T14:06:17.789Z,24.16
2023-05-04T14:08:46.149Z,24.21
2023-05-04T14:11:14.422Z,24.13
2023-05-04T14:13:42.761Z,23.98
2023-05-04T14:16:11.331Z,23.70
2023-05-04T14:18:39.983Z,23.60
2023-05-04T14:21:08.063Z,23.52
2023-05-04T14:23:37.902Z,23.46
2023-05-04T14:26:06.338Z,23.39
2023-05-04T14:28:34.333Z,23.36
2023-05-04T14:31:09.024Z,23.35
2023-05-04T14:33:38.319Z,23.35
2023-05-04T14:36:07.093Z,23.43
2023-05-04T14:38:36.340Z,23.67
2023-05-04T14:41:05.681Z,23.98
2023-05-04T14:43:34.521Z,24.19
2023-05-04T14:46:02.768Z,24.22
2023-05-04T14:48:31.159Z,24.05
2023-05-04T14:50:59.336Z,23.84
2023-05-04T14:53:29.629Z,23.65
2023-05-04T14:55:58.102Z,23.48
2023-05-04T14:58:26.500Z,23.33
2023-05-04T15:00:59.822Z,23.23
2023-05-04T15:03:28.902Z,23.21
2023-05-04T15:05:58.189Z,23.19
2023-05-04T15:08:26.380Z,23.13
2023-05-04T15:10:58.811Z,23.03
2023-05-04T15:13:27.297Z,22.91
2023-05-04T15:15:55.284Z,22.91
2023-05-04T15:18:24.860Z,22.84
2023-05-04T15:20:54.322Z,22.76
2023-05-04T15:23:22.788Z,22.63
2023-05-04T15:25:51.150Z,22.53
2023-05-04T15:28:23.024Z,22.41
2023-05-04T15:30:51.012Z,22.32
2023-05-04T15:33:19.093Z,22.21
2023-05-04T15:35:49.563Z,22.11
2023-05-04T15:38:22.047Z,22.02
2023-05-04T15:40:53.847Z,21.92
2023-05-04T15:43:22.342Z,21.79
2023-05-04T15:45:53.166Z,21.68
2023-05-04T15:48:21.484Z,21.58
2023-05-04T15:50:55.243Z,21.46
2023-05-04T15:53:29.230Z,21.32
2023-05-04T15:55:57.956Z,21.23
2023-05-04T15:58:26.910Z,21.15
2023-05-04T16:00:55.799Z,21.13
2023-05-04T16:03:24.436Z,21.11
2023-05-04T16:05:52.612Z,21.04
2023-05-04T16:08:20.746Z,20.99
2023-05-04T16:10:49.812Z,20.95
2023-05-04T16:13:18.115Z,20.86
2023-05-04T16:15:50.541Z,20.75
2023-05-04T16:18:20.492Z,20.65
2023-05-04T16:20:49.120Z,20.57
2023-05-04T16:23:18.143Z,20.50
2023-05-04T16:25:46.697Z,20.40
2023-05-04T16:28:17.064Z,20.29
2023-05-04T16:30:49.807Z,20.21
2023-05-04T16:33:20.082Z,20.11
2023-05-04T16:35:48.387Z,19.98
2023-05-04T16:38:17.210Z,19.83
2023-05-04T16:40:45.643Z,19.71
2023-05-04T16:43:15.942Z,19.60
2023-05-04T16:45:46.104Z,19.48
2023-05-04T16:48:14.298Z,19.37
2023-05-04T16:50:42.450Z,19.27
2023-05-04T16:53:11.506Z,19.20
2023-05-04T16:55:41.152Z,19.12
2023-05-04T16:58:09.314Z,19.05
2023-05-04T17:00:37.398Z,18.97
2023-05-04T17:03:05.530Z,18.91
2023-05-04T17:05:35.370Z,18.83
2023-05-04T17:08:03.870Z,18.75
2023-05-04T17:10:32.057Z,18.69
2023-05-04T17:13:02.275Z,18.62
2023-05-04T17:15:31.344Z,18.51
2023-05-04T17:18:01.232Z,18.44
2023-05-04T17:20:32.354Z,18.33
2023-05-04T17:23:00.929Z,18.21
2023-05-04T17:25:34.399Z,18.10
2023-05-04T17:28:02.543Z,18.04
2023-05-04T17:30:31.064Z,17.96
2023-05-04T17:32:58.969Z,17.91
2023-05-04T17:35:29.863Z,17.83
2023-05-04T17:37:58.977Z,17.77
2023-05-04T17:40:30.266Z,17.70
2023-05-04T17:42:58.198Z,17.67
2023-05-04T17:45:26.571Z,17.64
2023-05-04T17:47:54.590Z,17.61
2023-05-04T17:50:25.899Z,17.58
2023-05-04T17:52:58.185Z,17.56
2023-05-04T17:55:27.481Z,17.51
2023-05-04T17:57:56.356Z,17.47
2023-05-04T18:00:25.908Z,17.42
2023-05-04T18:02:54.526Z,17.35
2023-05-04T18:05:23.820Z,17.32
2023-05-04T18:07:52.346Z,17.30
2023-05-04T18:10:21.177Z,17.28
2023-05-04T18:12:50.411Z,17.25
2023-05-04T18:15:18.821Z,17.19
2023-05-04T18:17:49.645Z,17.15
2023-05-04T18:20:17.909Z,17.11
2023-05-04T18:22:47.296Z,17.05
2023-05-04T18:25:19.399Z,17.04
2023-05-04T18:27:49.466Z,17.01
2023-05-04T18:30:22.412Z,16.99
2023-05-04T18:32:52.488Z,16.98
2023-05-04T18:35:22.112Z,17.00
2023-05-04T18:37:50.397Z,16.98
2023-05-04T18:40:18.853Z,16.93
2023-05-04T18:42:46.869Z,16.91
2023-05-04T18:45:14.845Z,16.83
2023-05-04T18:47:43.352Z,16.78
2023-05-04T18:50:14.064Z,16.73
2023-05-04T18:52:45.670Z,16.75
2023-05-04T18:55:27.147Z,16.81
2023-05-04T18:57:57.000Z,16.84
2023-05-04T19:00:31.178Z,16.81
2023-05-04T19:03:05.355Z,16.75
2023-05-04T19:05:44.760Z,16.71
2023-05-04T19:08:13.217Z,16.70
2023-05-04T19:10:43.473Z,16.67
2023-05-04T19:13:11.868Z,16.66
2023-05-04T19:15:54.347Z,16.66
2023-05-04T19:18:24.824Z,16.66
2023-05-04T19:20:58.613Z,16.67
2023-05-04T19:23:27.450Z,16.72
2023-05-04T19:26:04.683Z,16.75
2023-05-04T19:28:32.857Z,16.74
2023-05-04T19:31:03.903Z,16.67
2023-05-04T19:33:44.456Z,16.61
2023-05-04T19:36:36.981Z,16.56
2023-05-04T19:39:05.355Z,16.50
2023-05-04T19:41:33.515Z,16.47
2023-05-04T19:44:18.446Z,16.47
2023-05-04T19:46:47.920Z,16.44
2023-05-04T19:49:16.299Z,16.39
2023-05-04T19:51:45.172Z,16.40
2023-05-04T19:56:57.362Z,16.38
2023-05-04T19:59:25.829Z,16.34
2023-05-04T20:01:53.984Z,16.38
2023-05-04T20:04:22.574Z,16.34
2023-05-04T20:06:50.864Z,16.32
2023-05-04T20:09:19.891Z,16.40
2023-05-04T20:11:48.339Z,16.43
2023-05-04T20:14:16.743Z,16.44
2023-05-04T20:16:45.280Z,16.43
2023-05-04T20:19:13.483Z,16.38
2023-05-04T20:21:44.911Z,16.39
2023-05-04T20:24:13.364Z,16.38
2023-05-04T20:26:44.229Z,16.36
2023-05-04T20:29:12.519Z,16.38
2023-05-04T20:31:41.551Z,16.36
2023-05-04T20:34:09.989Z,16.32
2023-05-04T20:36:38.497Z,16.26
2023-05-04T20:39:07.510Z,16.17
2023-05-04T20:41:39.177Z,16.08
2023-05-04T20:44:07.180Z,15.94
2023-05-04T20:46:35.387Z,15.86
2023-05-04T20:49:03.843Z,15.78
2023-05-04T20:51:33.095Z,15.67
2023-05-04T20:54:01.483Z,15.50
2023-05-04T20:56:30.010Z,15.41
2023-05-04T20:58:58.403Z,15.35
2023-05-04T21:01:26.442Z,15.31
2023-05-04T21:03:55.209Z,15.39
2023-05-04T21:06:24.681Z,15.43
2023-05-04T21:08:52.632Z,15.45
2023-05-04T21:11:21.513Z,15.41
2023-05-04T21:13:49.750Z,15.35
2023-05-04T21:16:18.513Z,15.34
2023-05-04T21:18:47.045Z,15.36
2023-05-04T21:21:18.719Z,15.37
2023-05-04T21:23:47.032Z,15.37
2023-05-04T21:26:15.253Z,15.32
2023-05-04T21:28:43.810Z,15.25
2023-05-04T21:31:11.812Z,15.13
2023-05-04T21:33:40.300Z,15.04
2023-05-04T21:36:15.304Z,14.93
2023-05-04T21:38:43.289Z,14.80
2023-05-04T21:41:15.250Z,14.69
2023-05-04T21:43:43.560Z,14.61
2023-05-04T21:46:13.116Z,14.57
2023-05-04T21:48:41.482Z,14.57
2023-05-04T21:51:09.723Z,14.65
2023-05-04T21:53:37.869Z,14.63
2023-05-04T21:56:07.953Z,14.60
2023-05-04T21:58:45.697Z,14.52
2023-05-04T22:01:20.442Z,14.50
2023-05-04T22:03:50.143Z,14.50
2023-05-04T22:06:19.256Z,14.48
2023-05-04T22:08:47.748Z,14.48
2023-05-04T22:11:16.085Z,14.50
2023-05-04T22:13:44.696Z,14.47
2023-05-04T22:16:13.594Z,14.47
2023-05-04T22:18:41.770Z,14.44
2023-05-04T22:21:09.922Z,14.38
2023-05-04T22:23:41.185Z,14.38
2023-05-04T22:26:11.782Z,14.36
2023-05-04T22:28:39.846Z,14.31
2023-05-04T22:31:08.508Z,14.28
2023-05-04T22:33:36.778Z,14.27
2023-05-04T22:36:05.206Z,14.26
2023-05-04T22:38:36.686Z,14.22
2023-05-04T22:41:04.871Z,14.17
2023-05-04T22:43:36.409Z,14.14
2023-05-04T22:46:04.872Z,14.08
2023-05-04T22:48:34.635Z,14.06
2023-05-04T22:51:02.861Z,14.02
2023-05-04T22:53:38.168Z,13.97
2023-05-04T22:56:06.977Z,13.92
2023-05-04T22:58:35.519Z,13.95
2023-05-04T23:01:08.991Z,14.03
2023-05-04T23:03:37.491Z,14.09
2023-05-04T23:06:06.107Z,14.14
2023-05-04T23:08:34.506Z,14.21
2023-05-04T23:11:02.601Z,14.29
2023-05-04T23:13:31.227Z,14.30
2023-05-04T23:16:01.419Z,14.30
2023-05-04T23:18:30.103Z,14.28
2023-05-04T23:20:58.254Z,14.31
2023-05-04T23:23:26.605Z,14.37
2023-05-04T23:25:54.800Z,14.40
2023-05-04T23:28:22.825Z,14.47
2023-05-04T23:30:50.838Z,14.48
2023-05-04T23:33:19.181Z,14.50
2023-05-04T23:35:47.685Z,14.59
2023-05-04T23:38:16.613Z,14.65
2023-05-04T23:40:45.145Z,14.69
2023-05-04T23:43:13.257Z,14.70
2023-05-04T23:45:41.369Z,14.76
2023-05-04T23:48:09.577Z,14.77
2023-05-04T23:50:40.450Z,14.81
2023-05-04T23:53:10.897Z,14.80
2023-05-04T23:55:38.930Z,14.84
2023-05-04T23:58:07.042Z,14.87
